createdAt,value
2019-06-01T00:02:04.356Z,101679.11
2019-06-01T00:04:34.991Z,101676.03
2019-06-01T00:07:05.722Z,101683.61
2019-06-01T00:09:37.267Z,101684.16
2019-06-01T00:12:07.702Z,101680.84
2019-06-01T00:14:39.570Z,101684.59
2019-06-01T00:17:10.463Z,101684.24
2019-06-01T00:19:41.995Z,101678.14
2019-06-01T00:22:12.503Z,101684.59
2019-06-01T00:24:43.831Z,101681.80
2019-06-01T00:27:14.350Z,101685.59
2019-06-01T00:29:46.787Z,101689.58
2019-06-01T00:32:17.408Z,101691.45
2019-06-01T00:34:47.848Z,101692.24
2019-06-01T00:37:18.457Z,101690.00
2019-06-01T00:39:49.924Z,101696.50
2019-06-01T00:42:20.359Z,101691.00
2019-06-01T00:44:50.936Z,101684.14
2019-06-01T00:47:21.587Z,101685.72
2019-06-01T00:49:53.084Z,101687.25
2019-06-01T00:52:23.783Z,101682.84
2019-06-01T00:54:54.862Z,101678.97
2019-06-01T00:57:25.427Z,101678.91
2019-06-01T00:59:55.930Z,101677.99
2019-06-01T01:02:26.559Z,101679.31
2019-06-01T01:05:08.921Z,101680.88
2019-06-01T01:07:39.490Z,101678.61
2019-06-01T01:10:10.647Z,101692.16
2019-06-01T01:12:58.682Z,101687.20
2019-06-01T01:15:29.221Z,101686.63
2019-06-01T01:18:01.272Z,101692.84
2019-06-01T01:20:31.805Z,101697.42
2019-06-01T01:23:02.590Z,101689.50
2019-06-01T01:25:33.786Z,101695.48
2019-06-01T01:28:04.636Z,101688.69
2019-06-01T01:30:36.294Z,101694.13
2019-06-01T01:33:08.430Z,101697.59
2019-06-01T01:35:38.987Z,101699.38
2019-06-01T01:38:09.514Z,101689.02
2019-06-01T01:40:39.963Z,101693.80
2019-06-01T01:43:10.490Z,101693.19
2019-06-01T01:45:41.210Z,101696.67
2019-06-01T01:48:11.679Z,101694.47
2019-06-01T01:50:42.244Z,101689.23
2019-06-01T01:53:12.737Z,101689.12
2019-06-01T01:55:44.430Z,101687.37
2019-06-01T01:58:14.936Z,101689.20
2019-06-01T02:00:48.429Z,101686.68
2019-06-01T02:03:18.967Z,101692.30
2019-06-01T02:05:50.679Z,101695.20
2019-06-01T02:08:21.249Z,101691.63
2019-06-01T02:10:51.674Z,101684.73
2019-06-01T02:13:22.127Z,101680.90
2019-06-01T02:15:54.058Z,101681.16
2019-06-01T02:18:24.597Z,101673.53
2019-06-01T02:20:56.286Z,101681.44
2019-06-01T02:23:26.761Z,101673.30
2019-06-01T02:25:57.286Z,101670.23
2019-06-01T02:28:27.801Z,101673.48
2019-06-01T02:30:59.789Z,101675.03
2019-06-01T02:33:30.501Z,101677.94
2019-06-01T02:36:03.035Z,101677.08
2019-06-01T02:38:33.142Z,101677.85
2019-06-01T02:41:05.654Z,101677.31
2019-06-01T02:43:37.170Z,101672.43
2019-06-01T02:46:08.642Z,101682.16
2019-06-01T02:48:39.200Z,101682.65
2019-06-01T02:51:09.575Z,101693.50
2019-06-01T02:53:39.965Z,101685.59
2019-06-01T02:56:10.576Z,101691.48
2019-06-01T02:58:41.296Z,101684.42
2019-06-01T03:01:26.735Z,101685.47
2019-06-01T03:03:57.784Z,101684.66
2019-06-01T03:06:32.432Z,101698.52
2019-06-01T03:09:06.812Z,101695.15
2019-06-01T03:11:39.454Z,101693.52
2019-06-01T03:14:13.120Z,101695.64
2019-06-01T03:16:43.769Z,101691.22
2019-06-01T03:19:17.070Z,101691.40
2019-06-01T03:21:50.177Z,101681.59
2019-06-01T03:24:25.015Z,101683.45
2019-06-01T03:26:56.139Z,101676.16
2019-06-01T03:29:29.577Z,101676.35
2019-06-01T03:32:19.205Z,101682.05
2019-06-01T03:34:32.173Z,101674.69
2019-06-01T03:37:02.948Z,101679.24
2019-06-01T03:39:35.281Z,101674.87
2019-06-01T03:42:07.997Z,101671.57
2019-06-01T03:44:38.494Z,101671.57
2019-06-01T03:47:09.749Z,101670.22
2019-06-01T03:49:40.390Z,101678.94
2019-06-01T03:52:10.974Z,101673.23
2019-06-01T03:54:41.420Z,101673.70
2019-06-01T03:57:11.697Z,101670.98
2019-06-01T03:59:42.213Z,101678.66
2019-06-01T04:02:12.664Z,101675.69
2019-06-01T04:04:43.188Z,101672.80
2019-06-01T04:07:15.272Z,101676.45
2019-06-01T04:09:45.658Z,101672.77
2019-06-01T04:12:16.188Z,101676.94
2019-06-01T04:14:46.623Z,101678.69
2019-06-01T04:17:17.125Z,101675.20
2019-06-01T04:19:47.635Z,101672.31
2019-06-01T04:22:18.102Z,101680.84
2019-06-01T04:24:48.528Z,101681.78
2019-06-01T04:27:18.998Z,101679.11
2019-06-01T04:29:51.051Z,101675.92
2019-06-01T04:32:21.446Z,101682.80
2019-06-01T04:34:51.936Z,101683.19
2019-06-01T04:37:22.469Z,101675.44
2019-06-01T04:39:52.892Z,101673.65
2019-06-01T04:42:23.438Z,101679.23
2019-06-01T04:44:53.970Z,101672.90
2019-06-01T04:47:25.211Z,101674.91
2019-06-01T04:49:55.826Z,101672.04
2019-06-01T04:52:27.680Z,101671.37
2019-06-01T04:54:58.300Z,101674.70
2019-06-01T04:57:31.110Z,101671.07
2019-06-01T05:00:03.251Z,101679.73
2019-06-01T05:02:34.330Z,101676.70
2019-06-01T05:05:09.160Z,101680.22
2019-06-01T05:07:39.783Z,101677.41
2019-06-01T05:10:11.582Z,101680.63
2019-06-01T05:12:42.155Z,101676.87
2019-06-01T05:15:16.127Z,101680.42
2019-06-01T05:17:46.543Z,101679.30
2019-06-01T05:20:17.314Z,101679.05
2019-06-01T05:22:47.883Z,101685.61
2019-06-01T05:25:18.324Z,101676.45
2019-06-01T05:27:48.871Z,101679.25
2019-06-01T05:30:19.875Z,101679.30
2019-06-01T05:32:50.388Z,101673.94
2019-06-01T05:35:22.820Z,101679.39
2019-06-01T05:37:53.283Z,101671.78
2019-06-01T05:40:23.874Z,101678.08
2019-06-01T05:42:56.550Z,101680.86
2019-06-01T05:45:27.029Z,101677.34
2019-06-01T05:47:57.601Z,101683.13
2019-06-01T05:50:28.994Z,101686.06
2019-06-01T05:52:59.475Z,101677.73
2019-06-01T05:55:29.984Z,101683.97
2019-06-01T05:58:00.511Z,101674.00
2019-06-01T06:00:42.429Z,101671.21
2019-06-01T06:03:16.231Z,101668.59
2019-06-01T06:05:46.515Z,101665.55
2019-06-01T06:08:17.967Z,101663.64
2019-06-01T06:10:48.519Z,101666.00
2019-06-01T06:13:19.402Z,101666.30
2019-06-01T06:15:52.293Z,101663.06
2019-06-01T06:18:22.817Z,101652.93
2019-06-01T06:20:53.291Z,101659.96
2019-06-01T06:23:23.870Z,101652.11
2019-06-01T06:25:54.505Z,101655.20
2019-06-01T06:28:26.778Z,101648.21
2019-06-01T06:30:57.384Z,101653.05
2019-06-01T06:33:27.863Z,101653.59
2019-06-01T06:35:58.470Z,101652.23
2019-06-01T06:38:28.961Z,101654.53
2019-06-01T06:40:59.584Z,101652.81
2019-06-01T06:43:33.038Z,101646.91
2019-06-01T06:46:02.537Z,101636.53
2019-06-01T06:48:33.242Z,101636.27
2019-06-01T06:51:03.811Z,101636.27
2019-06-01T06:53:35.505Z,101639.09
2019-06-01T06:56:10.035Z,101627.41
2019-06-01T06:58:41.129Z,101627.41
2019-06-01T07:01:12.252Z,101645.01
2019-06-01T07:03:42.885Z,101642.19
2019-06-01T07:06:13.310Z,101637.31
2019-06-01T07:08:44.151Z,101636.67
2019-06-01T07:11:14.597Z,101641.13
2019-06-01T07:13:53.421Z,101641.05
2019-06-01T07:16:23.989Z,101638.33
2019-06-01T07:18:55.002Z,101635.25
2019-06-01T07:21:25.848Z,101639.59
2019-06-01T07:23:56.460Z,101641.20
2019-06-01T07:26:30.179Z,101633.70
2019-06-01T07:29:00.786Z,101635.45
2019-06-01T07:31:32.493Z,101628.11
2019-06-01T07:34:03.406Z,101625.56
2019-06-01T07:36:33.936Z,101626.03
2019-06-01T07:39:05.347Z,101626.04
2019-06-01T07:41:35.885Z,101630.22
2019-06-01T07:44:06.621Z,101630.20
2019-06-01T07:46:37.161Z,101616.48
2019-06-01T07:49:07.802Z,101617.88
2019-06-01T07:51:38.309Z,101615.52
2019-06-01T07:54:08.923Z,101610.25
2019-06-01T07:56:39.843Z,101608.08
2019-06-01T07:59:10.422Z,101613.02
2019-06-01T08:01:41.203Z,101610.91
2019-06-01T08:04:11.820Z,101610.20
2019-06-01T08:06:46.072Z,101611.11
2019-06-01T08:09:15.763Z,101613.97
2019-06-01T08:11:46.145Z,101619.06
2019-06-01T08:14:16.637Z,101623.35
2019-06-01T08:16:47.163Z,101625.61
2019-06-01T08:19:17.710Z,101628.09
2019-06-01T08:21:48.285Z,101625.02
2019-06-01T08:24:18.900Z,101622.14
2019-06-01T08:26:49.936Z,101619.11
2019-06-01T08:29:20.527Z,101625.32
2019-06-01T08:31:55.656Z,101626.44
2019-06-01T08:34:24.739Z,101624.36
2019-06-01T08:36:55.586Z,101620.89
2019-06-01T08:39:27.370Z,101622.03
2019-06-01T08:41:58.144Z,101625.10
2019-06-01T08:44:29.600Z,101613.38
2019-06-01T08:47:00.304Z,101624.05
2019-06-01T08:49:32.369Z,101617.81
2019-06-01T08:52:03.014Z,101613.84
2019-06-01T08:54:34.337Z,101618.94
2019-06-01T08:57:04.937Z,101613.44
2019-06-01T08:59:36.575Z,101611.78
2019-06-01T09:02:07.142Z,101608.23
2019-06-01T09:04:37.797Z,101597.86
2019-06-01T09:07:08.378Z,101604.47
2019-06-01T09:09:41.245Z,101605.17
2019-06-01T09:12:15.956Z,101603.75
2019-06-01T09:14:50.305Z,101601.77
2019-06-01T09:17:25.278Z,101592.20
2019-06-01T09:19:57.029Z,101586.66
2019-06-01T09:22:29.474Z,101588.18
2019-06-01T09:25:03.593Z,101584.62
2019-06-01T09:27:36.126Z,101584.91
2019-06-01T09:30:10.016Z,101581.04
2019-06-01T09:32:41.143Z,101577.59
2019-06-01T09:35:14.214Z,101577.34
2019-06-01T09:37:45.884Z,101574.17
2019-06-01T09:40:18.325Z,101564.64
2019-06-01T09:42:57.385Z,101571.77
2019-06-01T09:45:30.493Z,101565.81
2019-06-01T09:48:01.264Z,101568.08
2019-06-01T09:50:33.404Z,101563.22
2019-06-01T09:53:05.323Z,101568.23
2019-06-01T09:55:36.438Z,101570.50
2019-06-01T09:58:07.142Z,101569.48
2019-06-01T10:00:42.952Z,101560.76
2019-06-01T10:03:10.068Z,101555.52
2019-06-01T10:05:40.558Z,101554.73
2019-06-01T10:08:11.023Z,101550.38
2019-06-01T10:10:42.313Z,101551.17
2019-06-01T10:13:13.025Z,101545.87
2019-06-01T10:15:43.898Z,101544.46
2019-06-01T10:18:14.670Z,101537.65
2019-06-01T10:20:45.521Z,101534.92
2019-06-01T10:23:16.245Z,101531.73
2019-06-01T10:25:46.917Z,101524.09
2019-06-01T10:28:17.656Z,101527.76
2019-06-01T10:30:48.312Z,101526.62
2019-06-01T10:33:19.935Z,101529.29
2019-06-01T10:35:50.611Z,101523.23
2019-06-01T10:38:22.683Z,101525.44
2019-06-01T10:40:54.423Z,101518.39
2019-06-01T10:43:25.128Z,101516.19
2019-06-01T10:45:55.874Z,101514.58
2019-06-01T10:48:26.716Z,101514.21
2019-06-01T10:50:58.390Z,101518.64
2019-06-01T10:53:28.903Z,101519.58
2019-06-01T10:55:59.459Z,101514.22
2019-06-01T10:58:32.235Z,101516.06
2019-06-01T11:01:02.924Z,101522.70
2019-06-01T11:03:34.630Z,101521.07
2019-06-01T11:06:05.209Z,101519.93
2019-06-01T11:08:37.047Z,101521.17
2019-06-01T11:11:07.781Z,101513.00
2019-06-01T11:13:39.084Z,101512.05
2019-06-01T11:16:09.738Z,101514.94
2019-06-01T11:18:41.764Z,101504.87
2019-06-01T11:21:13.020Z,101497.83
2019-06-01T11:23:46.379Z,101496.31
2019-06-01T11:26:16.202Z,101502.14
2019-06-01T11:28:46.904Z,101502.50
2019-06-01T11:31:17.587Z,101507.70
2019-06-01T11:33:48.423Z,101505.13
2019-06-01T11:36:19.359Z,101498.70
2019-06-01T11:38:50.191Z,101500.43
2019-06-01T11:41:20.899Z,101499.49
2019-06-01T11:43:51.470Z,101501.34
2019-06-01T11:46:22.374Z,101495.24
2019-06-01T11:48:52.928Z,101491.76
2019-06-01T11:51:23.870Z,101489.22
2019-06-01T11:53:54.888Z,101487.77
2019-06-01T11:56:25.601Z,101483.69
2019-06-01T11:58:56.658Z,101474.58
2019-06-01T12:01:27.899Z,101472.09
2019-06-01T12:03:58.549Z,101471.34
2019-06-01T12:06:29.086Z,101460.89
2019-06-01T12:08:59.757Z,101453.95
2019-06-01T12:11:30.563Z,101454.22
2019-06-01T12:14:01.391Z,101453.41
2019-06-01T12:16:32.136Z,101451.95
2019-06-01T12:19:03.050Z,101450.31
2019-06-01T12:21:34.176Z,101440.31
2019-06-01T12:24:04.935Z,101436.66
2019-06-01T12:26:35.513Z,101434.36
2019-06-01T12:29:06.399Z,101433.95
2019-06-01T12:31:38.023Z,101423.91
2019-06-01T12:34:08.672Z,101438.45
2019-06-01T12:36:40.879Z,101430.75
2019-06-01T12:39:13.527Z,101425.05
2019-06-01T12:41:45.530Z,101424.91
2019-06-01T12:44:16.217Z,101419.69
2019-06-01T12:46:47.039Z,101413.05
2019-06-01T12:49:17.735Z,101413.05
2019-06-01T12:51:48.958Z,101408.17
2019-06-01T12:54:19.707Z,101412.61
2019-06-01T12:56:50.424Z,101398.61
2019-06-01T12:59:20.971Z,101390.44
2019-06-01T13:01:51.798Z,101390.44
2019-06-01T13:04:22.401Z,101390.02
2019-06-01T13:06:54.177Z,101394.21
2019-06-01T13:09:24.863Z,101392.02
2019-06-01T13:11:55.473Z,101393.62
2019-06-01T13:14:26.144Z,101382.52
2019-06-01T13:17:06.773Z,101385.53
2019-06-01T13:19:30.121Z,101384.59
2019-06-01T13:22:00.557Z,101369.88
2019-06-01T13:24:31.207Z,101379.02
2019-06-01T13:27:01.901Z,101373.95
2019-06-01T13:29:32.703Z,101378.27
2019-06-01T13:32:03.404Z,101367.88
2019-06-01T13:34:34.525Z,101371.80
2019-06-01T13:37:05.332Z,101370.16
2019-06-01T13:39:36.909Z,101366.21
2019-06-01T13:42:07.564Z,101367.98
2019-06-01T13:44:38.082Z,101366.67
2019-06-01T13:47:08.796Z,101360.22
2019-06-01T13:49:40.096Z,101356.91
2019-06-01T13:52:11.032Z,101351.97
2019-06-01T13:54:41.966Z,101358.02
2019-06-01T13:57:12.532Z,101349.55
2019-06-01T13:59:47.114Z,101345.17
2019-06-01T14:02:17.781Z,101347.93
2019-06-01T14:04:49.769Z,101346.17
2019-06-01T14:07:20.390Z,101339.79
2019-06-01T14:09:52.201Z,101350.57
2019-06-01T14:12:23.464Z,101348.00
2019-06-01T14:14:53.990Z,101341.11
2019-06-01T14:17:24.513Z,101332.12
2019-06-01T14:19:55.887Z,101331.48
2019-06-01T14:22:26.489Z,101331.09
2019-06-01T14:25:11.990Z,101324.98
2019-06-01T14:27:29.289Z,101323.05
2019-06-01T14:30:00.888Z,101319.47
2019-06-01T14:32:35.623Z,101323.66
2019-06-01T14:35:06.600Z,101315.69
2019-06-01T14:37:37.722Z,101313.82
2019-06-01T14:40:08.726Z,101315.61
2019-06-01T14:42:39.370Z,101311.34
2019-06-01T14:45:10.198Z,101315.45
2019-06-01T14:47:40.896Z,101303.24
2019-06-01T14:50:12.857Z,101303.78
2019-06-01T14:52:43.579Z,101299.20
2019-06-01T14:55:14.534Z,101300.12
2019-06-01T14:57:45.246Z,101292.80
2019-06-01T15:00:16.212Z,101295.66
2019-06-01T15:02:48.113Z,101292.90
2019-06-01T15:05:18.973Z,101292.17
2019-06-01T15:07:50.192Z,101289.72
2019-06-01T15:10:21.194Z,101289.03
2019-06-01T15:12:56.544Z,101281.34
2019-06-01T15:15:24.299Z,101280.34
2019-06-01T15:17:55.505Z,101279.15
2019-06-01T15:20:26.064Z,101276.48
2019-06-01T15:22:56.675Z,101271.70
2019-06-01T15:25:27.247Z,101270.83
2019-06-01T15:27:58.888Z,101265.80
2019-06-01T15:30:30.827Z,101263.32
2019-06-01T15:33:03.417Z,101250.22
2019-06-01T15:35:34.228Z,101262.30
2019-06-01T15:38:04.974Z,101258.77
2019-06-01T15:40:35.623Z,101244.30
2019-06-01T15:43:06.143Z,101239.65
2019-06-01T15:45:41.085Z,101243.97
2019-06-01T15:48:09.124Z,101233.13
2019-06-01T15:50:39.820Z,101236.18
2019-06-01T15:53:11.871Z,101232.86
2019-06-01T15:55:42.543Z,101224.54
2019-06-01T15:58:13.146Z,101227.77
2019-06-01T16:00:43.675Z,101221.25
2019-06-01T16:03:14.262Z,101219.47
2019-06-01T16:05:45.826Z,101218.38
2019-06-01T16:08:16.422Z,101216.27
2019-06-01T16:10:46.958Z,101210.91
2019-06-01T16:13:17.616Z,101204.62
2019-06-01T16:15:48.176Z,101200.33
2019-06-01T16:18:18.721Z,101198.88
2019-06-01T16:20:49.464Z,101193.67
2019-06-01T16:23:20.115Z,101189.27
2019-06-01T16:26:04.917Z,101192.05
2019-06-01T16:28:22.898Z,101185.66
2019-06-01T16:30:54.372Z,101186.45
2019-06-01T16:33:24.999Z,101185.43
2019-06-01T16:35:56.916Z,101172.31
2019-06-01T16:38:27.552Z,101167.69
2019-06-01T16:41:01.349Z,101167.69
2019-06-01T16:43:32.541Z,101154.69
2019-06-01T16:46:03.836Z,101154.69
2019-06-01T16:48:34.749Z,101167.09
2019-06-01T16:51:05.911Z,101158.63
2019-06-01T16:53:36.586Z,101156.44
2019-06-01T16:56:07.249Z,101159.48
2019-06-01T16:58:37.751Z,101153.98
2019-06-01T17:01:08.338Z,101158.00
2019-06-01T17:03:39.638Z,101162.89
2019-06-01T17:06:10.179Z,101165.09
2019-06-01T17:08:41.182Z,101160.08
2019-06-01T17:11:14.722Z,101156.03
2019-06-01T17:13:45.808Z,101149.25
2019-06-01T17:16:16.202Z,101151.37
2019-06-01T17:18:46.855Z,101151.52
2019-06-01T17:21:17.549Z,101146.86
2019-06-01T17:23:48.684Z,101148.70
2019-06-01T17:26:19.270Z,101146.33
2019-06-01T17:28:50.171Z,101139.30
2019-06-01T17:31:21.790Z,101135.35
2019-06-01T17:33:52.293Z,101134.48
2019-06-01T17:36:23.547Z,101136.97
2019-06-01T17:38:54.150Z,101138.87
2019-06-01T17:41:24.783Z,101138.65
2019-06-01T17:43:55.296Z,101143.55
2019-06-01T17:46:25.909Z,101129.49
2019-06-01T17:48:56.417Z,101135.73
2019-06-01T17:51:27.018Z,101125.77
2019-06-01T17:53:57.559Z,101128.39
2019-06-01T17:56:28.153Z,101120.09
2019-06-01T17:58:58.627Z,101125.13
2019-06-01T18:01:29.431Z,101125.13
2019-06-01T18:04:02.239Z,101123.67
2019-06-01T18:06:32.942Z,101123.59
2019-06-01T18:09:03.848Z,101123.52
2019-06-01T18:11:36.001Z,101125.52
2019-06-01T18:14:08.201Z,101121.81
2019-06-01T18:16:39.067Z,101121.36
2019-06-01T18:19:10.402Z,101120.09
2019-06-01T18:21:41.663Z,101119.06
2019-06-01T18:24:14.752Z,101115.94
2019-06-01T18:26:45.748Z,101113.17
2019-06-01T18:29:16.473Z,101108.66
2019-06-01T18:31:47.065Z,101110.47
2019-06-01T18:34:17.770Z,101113.82
2019-06-01T18:36:48.478Z,101106.41
2019-06-01T18:39:19.123Z,101105.00
2019-06-01T18:41:50.218Z,101107.42
2019-06-01T18:44:20.812Z,101103.25
2019-06-01T18:46:51.431Z,101102.19
2019-06-01T18:49:22.355Z,101097.80
2019-06-01T18:51:53.028Z,101094.64
2019-06-01T18:54:23.810Z,101091.77
2019-06-01T18:57:09.108Z,101091.38
2019-06-01T18:59:26.828Z,101085.82
2019-06-01T19:01:57.332Z,101079.67
2019-06-01T19:04:28.478Z,101077.82
2019-06-01T19:06:59.391Z,101071.78
2019-06-01T19:09:30.019Z,101070.27
2019-06-01T19:12:00.797Z,101071.30
2019-06-01T19:14:32.898Z,101067.70
2019-06-01T19:17:03.494Z,101077.03
2019-06-01T19:19:34.229Z,101075.25
2019-06-01T19:22:04.965Z,101073.62
2019-06-01T19:24:36.611Z,101070.02
2019-06-01T19:27:08.580Z,101072.42
2019-06-01T19:29:39.325Z,101069.22
2019-06-01T19:32:10.862Z,101072.21
2019-06-01T19:34:42.117Z,101069.98
2019-06-01T19:37:13.125Z,101064.73
2019-06-01T19:39:44.423Z,101064.12
2019-06-01T19:42:15.569Z,101064.66
2019-06-01T19:44:46.299Z,101064.62
2019-06-01T19:47:19.158Z,101060.53
2019-06-01T19:49:50.326Z,101060.01
2019-06-01T19:52:21.331Z,101060.64
2019-06-01T19:54:52.159Z,101058.70
2019-06-01T19:57:23.975Z,101061.52
2019-06-01T19:59:54.771Z,101056.84
2019-06-01T20:02:33.608Z,101057.58
2019-06-01T20:04:59.459Z,101061.45
2019-06-01T20:07:30.046Z,101062.52
2019-06-01T20:10:00.618Z,101065.09
2019-06-01T20:12:34.288Z,101067.72
2019-06-01T20:15:05.357Z,101062.39
2019-06-01T20:17:35.980Z,101065.30
2019-06-01T20:20:07.060Z,101065.50
2019-06-01T20:22:37.728Z,101068.33
2019-06-01T20:25:08.683Z,101063.48
2019-06-01T20:27:39.463Z,101066.26
2019-06-01T20:30:11.711Z,101079.53
2019-06-01T20:32:42.578Z,101072.38
2019-06-01T20:35:13.999Z,101068.23
2019-06-01T20:37:44.654Z,101068.77
2019-06-01T20:40:16.341Z,101067.70
2019-06-01T20:42:47.055Z,101067.11
2019-06-01T20:45:18.765Z,101065.90
2019-06-01T20:47:49.447Z,101069.13
2019-06-01T20:50:20.813Z,101069.61
2019-06-01T20:52:51.539Z,101069.81
2019-06-01T20:55:24.316Z,101072.96
2019-06-01T20:57:55.808Z,101073.35
2019-06-01T21:00:26.357Z,101064.36
2019-06-01T21:02:57.185Z,101065.66
2019-06-01T21:05:27.862Z,101062.02
2019-06-01T21:07:58.466Z,101060.64
2019-06-01T21:10:30.746Z,101060.64
2019-06-01T21:13:01.432Z,101059.00
2019-06-01T21:15:33.094Z,101056.52
2019-06-01T21:18:03.971Z,101058.12
2019-06-01T21:20:34.596Z,101056.74
2019-06-01T21:23:05.247Z,101050.73
2019-06-01T21:25:36.027Z,101055.52
2019-06-01T21:28:08.022Z,101054.14
2019-06-01T21:30:38.648Z,101047.25
2019-06-01T21:33:09.584Z,101048.95
2019-06-01T21:35:43.150Z,101041.88
2019-06-01T21:38:13.733Z,101041.73
2019-06-01T21:40:44.617Z,101032.83
2019-06-01T21:43:26.101Z,101037.84
2019-06-01T21:45:50.245Z,101039.27
2019-06-01T21:48:21.735Z,101034.17
2019-06-01T21:50:54.896Z,101036.75
2019-06-01T21:53:26.711Z,101032.42
2019-06-01T21:55:57.855Z,101034.45
2019-06-01T21:58:33.431Z,101028.69
2019-06-01T22:01:04.696Z,101022.38
2019-06-01T22:03:35.404Z,101022.95
2019-06-01T22:06:14.820Z,101020.81
2019-06-01T22:08:52.530Z,101011.71
2019-06-01T22:11:23.375Z,101009.65
2019-06-01T22:13:54.131Z,101012.55
2019-06-01T22:16:25.798Z,101010.49
2019-06-01T22:18:56.628Z,101002.27
2019-06-01T22:21:27.928Z,101003.07
2019-06-01T22:23:58.806Z,101003.30
2019-06-01T22:26:29.454Z,101010.24
2019-06-01T22:29:00.344Z,100999.62
2019-06-01T22:31:33.529Z,100998.31
2019-06-01T22:34:07.355Z,100997.58
2019-06-01T22:36:37.951Z,100998.63
2019-06-01T22:39:09.401Z,100995.37
2019-06-01T22:41:40.030Z,100992.45
2019-06-01T22:44:11.654Z,100989.20
2019-06-01T22:46:42.870Z,100982.37
2019-06-01T22:49:13.476Z,100981.06
2019-06-01T22:51:44.391Z,100982.02
2019-06-01T22:54:16.952Z,100982.69
2019-06-01T22:56:47.566Z,100981.15
2019-06-01T22:59:18.195Z,100977.62
2019-06-01T23:01:49.421Z,100980.75
2019-06-01T23:04:22.975Z,100977.64
2019-06-01T23:06:53.692Z,100974.75
2019-06-01T23:09:25.562Z,100971.88
2019-06-01T23:11:56.222Z,100970.00
2019-06-01T23:14:27.401Z,100967.85
2019-06-01T23:16:57.925Z,100961.55
2019-06-01T23:19:29.824Z,100961.12
2019-06-01T23:22:00.549Z,100958.73
2019-06-01T23:24:32.266Z,100957.97
2019-06-01T23:27:02.867Z,100959.20
2019-06-01T23:29:33.475Z,100952.70
2019-06-01T23:32:04.047Z,100956.11
2019-06-01T23:34:37.769Z,100956.27
2019-06-01T23:37:08.453Z,100950.97
2019-06-01T23:39:38.926Z,100948.59
2019-06-01T23:42:09.604Z,100944.62
2019-06-01T23:44:40.135Z,100948.33
2019-06-01T23:47:10.644Z,100941.08
2019-06-01T23:49:41.252Z,100934.34
2019-06-01T23:52:11.890Z,100937.80
2019-06-01T23:54:42.379Z,100931.83
2019-06-01T23:57:12.910Z,100928.04
2019-06-01T23:59:43.445Z,100922.55
